createdAt,value
2022-11-21T00:01:39.294Z,10.43
2022-11-21T00:04:08.385Z,10.43
2022-11-21T00:06:37.411Z,9.27
2022-11-21T00:09:06.435Z,8.00
2022-11-21T00:11:35.544Z,7.23
2022-11-21T00:14:04.708Z,7.40
2022-11-21T00:16:35.165Z,7.53
2022-11-21T00:19:05.441Z,6.87
2022-11-21T00:21:34.603Z,6.57
2022-11-21T00:24:03.674Z,7.17
2022-11-21T00:26:32.692Z,7.43
2022-11-21T00:29:01.714Z,6.63
2022-11-21T00:31:31.309Z,6.77
2022-11-21T00:34:01.703Z,7.13
2022-11-21T00:36:30.736Z,6.80
2022-11-21T00:38:59.797Z,6.60
2022-11-21T00:41:28.796Z,8.27
2022-11-21T00:43:57.790Z,7.83
2022-11-21T00:46:26.857Z,6.40
2022-11-21T00:48:55.884Z,7.07
2022-11-21T00:51:26.363Z,7.60
2022-11-21T00:53:55.398Z,7.07
2022-11-21T00:56:24.464Z,7.20
2022-11-21T00:58:53.502Z,7.40
2022-11-21T01:01:22.668Z,7.53
2022-11-21T01:03:51.766Z,7.23
2022-11-21T01:06:20.816Z,6.33
2022-11-21T01:08:51.250Z,6.17
2022-11-21T01:11:22.023Z,6.43
2022-11-21T01:13:54.128Z,5.43
2022-11-21T01:16:24.828Z,5.30
2022-11-21T01:18:54.295Z,4.77
2022-11-21T01:21:25.528Z,6.10
2022-11-21T01:23:56.351Z,7.90
2022-11-21T01:26:27.638Z,8.77
2022-11-21T01:28:58.064Z,9.30
2022-11-21T01:31:29.406Z,7.63
2022-11-21T01:34:00.030Z,7.00
2022-11-21T01:36:30.768Z,5.47
2022-11-21T01:39:02.584Z,6.23
2022-11-21T01:41:33.644Z,6.10
2022-11-21T01:44:03.265Z,5.90
2022-11-21T01:46:32.320Z,5.50
2022-11-21T01:49:07.719Z,5.87
2022-11-21T01:51:41.634Z,5.63
2022-11-21T01:54:15.668Z,6.47
2022-11-21T01:56:50.384Z,5.73
2022-11-21T01:59:24.106Z,4.73
2022-11-21T02:01:55.109Z,5.00
2022-11-21T02:04:27.453Z,5.90
2022-11-21T02:06:56.820Z,6.23
2022-11-21T02:09:27.580Z,6.60
2022-11-21T02:11:59.573Z,6.70
2022-11-21T02:14:30.177Z,5.90
2022-11-21T02:17:02.898Z,5.17
2022-11-21T02:19:39.429Z,4.57
2022-11-21T02:22:16.227Z,5.60
2022-11-21T02:24:50.382Z,4.77
2022-11-21T02:27:20.814Z,4.50
2022-11-21T02:29:49.902Z,5.20
2022-11-21T02:32:23.772Z,4.93
2022-11-21T02:34:52.844Z,4.67
2022-11-21T02:37:21.993Z,3.93
2022-11-21T02:39:51.625Z,5.20
2022-11-21T02:42:29.576Z,4.47
2022-11-21T02:45:06.356Z,3.63
2022-11-21T02:47:36.984Z,4.57
2022-11-21T02:50:14.267Z,4.00
2022-11-21T02:52:43.675Z,3.83
2022-11-21T02:55:13.494Z,4.63
2022-11-21T02:57:44.201Z,4.93
2022-11-21T03:00:14.029Z,4.50
2022-11-21T03:02:43.344Z,4.27
2022-11-21T03:05:15.180Z,4.37
2022-11-21T03:07:44.670Z,4.70
2022-11-21T03:10:14.007Z,4.03
2022-11-21T03:12:45.403Z,4.93
2022-11-21T03:15:16.303Z,4.43
2022-11-21T03:17:49.142Z,4.37
2022-11-21T03:20:18.187Z,4.93
2022-11-21T03:22:47.232Z,5.80
2022-11-21T03:25:16.383Z,5.37
2022-11-21T03:27:46.796Z,4.50
2022-11-21T03:30:16.514Z,4.50
2022-11-21T03:32:45.621Z,4.90
2022-11-21T03:35:14.987Z,4.33
2022-11-21T03:37:44.088Z,4.37
2022-11-21T03:40:13.877Z,4.93
2022-11-21T03:42:42.895Z,4.33
2022-11-21T03:45:13.376Z,5.23
2022-11-21T03:47:43.300Z,3.83
2022-11-21T03:50:15.036Z,4.63
2022-11-21T03:52:44.053Z,4.97
2022-11-21T03:55:13.128Z,4.07
2022-11-21T03:57:42.167Z,4.13
2022-11-21T04:00:14.565Z,5.17
2022-11-21T04:02:43.626Z,4.53
2022-11-21T04:05:12.692Z,4.67
2022-11-21T04:07:41.771Z,4.20
2022-11-21T04:10:11.461Z,5.40
2022-11-21T04:12:40.512Z,4.70
2022-11-21T04:15:13.690Z,4.60
2022-11-21T04:17:44.504Z,4.43
2022-11-21T04:20:13.739Z,5.83
2022-11-21T04:22:43.396Z,4.63
2022-11-21T04:25:13.697Z,4.70
2022-11-21T04:27:42.729Z,4.20
2022-11-21T04:30:12.784Z,5.20
2022-11-21T04:32:44.074Z,5.87
2022-11-21T04:35:13.101Z,4.83
2022-11-21T04:37:42.151Z,5.20
2022-11-21T04:40:12.440Z,5.03
2022-11-21T04:42:43.444Z,5.10
2022-11-21T04:45:13.793Z,4.87
2022-11-21T04:47:45.809Z,4.50
2022-11-21T04:50:16.964Z,4.93
2022-11-21T04:52:51.040Z,4.90
2022-11-21T04:55:20.530Z,4.87
2022-11-21T04:57:49.715Z,4.93
2022-11-21T05:00:24.240Z,4.53
2022-11-21T05:02:55.017Z,5.43
2022-11-21T05:05:24.081Z,5.30
2022-11-21T05:07:53.097Z,4.63
2022-11-21T05:10:22.187Z,5.87
2022-11-21T05:13:15.983Z,5.30
2022-11-21T05:15:45.019Z,5.33
2022-11-21T05:18:15.411Z,6.27
2022-11-21T05:20:44.470Z,6.80
2022-11-21T05:23:13.499Z,4.97
2022-11-21T05:25:42.528Z,5.53
2022-11-21T05:28:11.581Z,4.97
2022-11-21T05:30:40.662Z,6.20
2022-11-21T05:33:09.647Z,6.97
2022-11-21T05:35:43.447Z,8.07
2022-11-21T05:38:13.018Z,6.43
2022-11-21T05:40:42.273Z,6.50
2022-11-21T05:43:30.109Z,5.97
2022-11-21T05:45:59.325Z,5.47
2022-11-21T05:48:28.439Z,4.93
2022-11-21T05:50:58.863Z,5.27
2022-11-21T05:53:28.724Z,5.23
2022-11-21T05:56:02.838Z,6.07
2022-11-21T05:58:32.943Z,5.60
2022-11-21T06:01:03.775Z,5.00
2022-11-21T06:03:36.167Z,5.67
2022-11-21T06:06:11.950Z,5.63
2022-11-21T06:08:43.512Z,5.70
2022-11-21T06:11:15.098Z,5.47
2022-11-21T06:13:44.964Z,5.23
2022-11-21T06:16:15.852Z,6.27
2022-11-21T06:18:46.388Z,5.93
2022-11-21T06:21:18.915Z,5.53
2022-11-21T06:23:48.898Z,6.30
2022-11-21T06:26:20.494Z,5.43
2022-11-21T06:28:49.769Z,5.37
2022-11-21T06:31:20.649Z,5.60
2022-11-21T06:33:53.976Z,5.23
2022-11-21T06:36:24.613Z,5.70
2022-11-21T06:38:55.590Z,6.00
2022-11-21T06:41:26.655Z,5.93
2022-11-21T06:43:55.752Z,6.00
2022-11-21T06:46:24.866Z,5.53
2022-11-21T06:48:54.882Z,6.93
2022-11-21T06:51:26.277Z,6.80
2022-11-21T06:53:57.377Z,6.67
2022-11-21T06:56:27.313Z,6.40
2022-11-21T06:58:56.951Z,6.73
2022-11-21T07:01:26.430Z,7.57
2022-11-21T07:03:56.158Z,6.63
2022-11-21T07:06:27.173Z,7.23
2022-11-21T07:09:25.198Z,7.53
2022-11-21T07:11:45.766Z,6.47
2022-11-21T07:14:13.839Z,5.60
2022-11-21T07:16:42.865Z,6.27
2022-11-21T07:19:12.074Z,6.17
2022-11-21T07:21:43.061Z,7.97
2022-11-21T07:24:12.426Z,7.23
2022-11-21T07:26:41.483Z,6.07
2022-11-21T07:29:10.752Z,7.53
2022-11-21T07:31:40.082Z,6.67
2022-11-21T07:34:09.141Z,6.57
2022-11-21T07:36:38.245Z,6.63
2022-11-21T07:39:08.716Z,8.57
2022-11-21T07:41:37.805Z,7.20
2022-11-21T07:44:07.012Z,7.03
2022-11-21T07:46:36.074Z,7.37
2022-11-21T07:49:05.192Z,7.07
2022-11-21T07:51:34.897Z,6.53
2022-11-21T07:54:04.246Z,6.57
2022-11-21T07:56:34.701Z,8.67
2022-11-21T07:59:03.698Z,7.67
2022-11-21T08:01:33.933Z,8.20
2022-11-21T08:04:03.062Z,7.10
2022-11-21T08:06:32.040Z,7.33
2022-11-21T08:09:01.096Z,7.73
2022-11-21T08:11:30.901Z,7.97
2022-11-21T08:14:01.636Z,9.27
2022-11-21T08:16:32.828Z,11.87
2022-11-21T08:19:02.014Z,10.47
2022-11-21T08:21:31.376Z,9.97
2022-11-21T08:24:00.459Z,9.50
2022-11-21T08:26:29.481Z,11.70
2022-11-21T08:29:00.031Z,9.90
2022-11-21T08:31:30.669Z,11.43
2022-11-21T08:33:59.832Z,11.27
2022-11-21T08:36:28.894Z,12.40
2022-11-21T08:38:58.076Z,12.83
2022-11-21T08:41:44.917Z,12.17
2022-11-21T08:44:14.492Z,12.90
2022-11-21T08:46:44.973Z,12.67
2022-11-21T08:49:14.097Z,12.07
2022-11-21T08:51:43.142Z,11.03
2022-11-21T08:54:12.265Z,11.63
2022-11-21T08:56:41.255Z,12.83
2022-11-21T08:59:10.247Z,12.20
2022-11-21T09:01:39.665Z,12.43
2022-11-21T09:04:10.320Z,12.93
2022-11-21T09:06:39.992Z,12.50
2022-11-21T09:09:09.443Z,14.10
2022-11-21T09:11:38.689Z,12.37
2022-11-21T09:14:25.146Z,14.23
2022-11-21T09:17:11.474Z,12.37
2022-11-21T09:19:41.958Z,12.93
2022-11-21T09:22:11.010Z,13.33
2022-11-21T09:24:40.212Z,11.93
2022-11-21T09:27:09.493Z,12.60
2022-11-21T09:29:38.573Z,12.10
2022-11-21T09:32:07.648Z,13.23
2022-11-21T09:34:36.709Z,13.13
2022-11-21T09:37:07.189Z,13.17
2022-11-21T09:39:36.297Z,11.53
2022-11-21T09:42:27.279Z,10.97
2022-11-21T09:45:14.325Z,10.47
2022-11-21T09:47:46.572Z,9.93
2022-11-21T09:50:27.135Z,10.60
2022-11-21T09:53:01.985Z,11.20
2022-11-21T09:55:39.415Z,12.37
2022-11-21T09:58:17.099Z,13.40
2022-11-21T10:00:46.196Z,13.43
2022-11-21T10:03:19.419Z,12.17
2022-11-21T10:05:56.013Z,12.87
2022-11-21T10:08:41.936Z,13.37
2022-11-21T10:11:21.591Z,12.07
2022-11-21T10:14:07.985Z,11.10
2022-11-21T10:16:44.987Z,9.93
2022-11-21T10:19:43.195Z,10.83
2022-11-21T10:22:40.003Z,9.10
2022-11-21T10:25:15.604Z,8.77
2022-11-21T10:27:51.887Z,8.10
2022-11-21T10:30:22.624Z,10.03
2022-11-21T10:32:55.435Z,9.53
2022-11-21T10:35:26.542Z,7.90
2022-11-21T10:37:58.533Z,6.97
2022-11-21T10:40:36.965Z,8.23
2022-11-21T10:43:28.803Z,7.93
2022-11-21T10:45:58.072Z,8.90
2022-11-21T10:48:27.136Z,8.83
2022-11-21T10:51:12.255Z,7.23
2022-11-21T10:54:04.573Z,7.20
2022-11-21T10:56:38.249Z,5.47
2022-11-21T10:59:25.686Z,6.63
2022-11-21T11:01:59.455Z,6.53
2022-11-21T11:04:33.503Z,7.20
2022-11-21T11:07:23.420Z,6.70
2022-11-21T11:09:53.533Z,7.07
2022-11-21T11:12:46.111Z,5.43
2022-11-21T11:15:20.716Z,6.03
2022-11-21T11:17:55.676Z,6.77
2022-11-21T11:20:36.952Z,6.10
2022-11-21T11:23:27.334Z,6.50
2022-11-21T11:25:58.359Z,6.70
2022-11-21T11:28:37.064Z,5.43
2022-11-21T11:31:06.282Z,5.73
2022-11-21T11:33:37.242Z,5.87
2022-11-21T11:36:20.948Z,5.10
2022-11-21T11:38:55.945Z,5.53
2022-11-21T11:42:00.909Z,5.43
2022-11-21T11:45:01.251Z,4.97
2022-11-21T11:47:35.312Z,5.67
2022-11-21T11:50:15.354Z,4.90
2022-11-21T11:52:54.965Z,4.40
2022-11-21T11:55:31.693Z,4.53
2022-11-21T11:58:04.100Z,5.50
2022-11-21T12:00:43.192Z,4.90
2022-11-21T12:03:19.634Z,5.20
2022-11-21T12:06:04.761Z,3.80
2022-11-21T12:08:47.484Z,3.90
2022-11-21T12:11:48.927Z,3.80
2022-11-21T12:14:51.520Z,3.73
2022-11-21T12:17:28.539Z,3.47
2022-11-21T12:20:00.593Z,3.43
2022-11-21T12:22:29.744Z,3.57
2022-11-21T12:24:58.824Z,3.90
2022-11-21T12:27:32.164Z,4.30
2022-11-21T12:30:52.336Z,3.40
2022-11-21T12:33:24.919Z,2.70
2022-11-21T12:36:24.002Z,3.17
2022-11-21T12:39:17.371Z,2.70
2022-11-21T12:42:13.687Z,2.97
2022-11-21T12:45:01.893Z,3.10
2022-11-21T12:48:08.610Z,2.40
2022-11-21T12:51:06.249Z,2.47
2022-11-21T12:53:59.769Z,2.50
2022-11-21T12:56:38.864Z,2.60
2022-11-21T12:59:13.296Z,2.53
2022-11-21T13:01:51.610Z,2.30
2022-11-21T13:04:25.632Z,3.07
2022-11-21T13:06:58.680Z,2.90
2022-11-21T13:09:33.142Z,3.33
2022-11-21T13:12:07.881Z,2.80
2022-11-21T13:14:48.286Z,3.50
2022-11-21T13:17:39.424Z,2.50
2022-11-21T13:20:20.203Z,2.70
2022-11-21T13:22:56.195Z,2.40
2022-11-21T13:25:47.490Z,2.83
2022-11-21T13:28:34.511Z,2.63
2022-11-21T13:31:26.903Z,2.60
2022-11-21T13:33:56.258Z,2.50
2022-11-21T13:36:42.992Z,1.67
2022-11-21T13:39:38.741Z,3.60
2022-11-21T13:42:32.346Z,3.93
2022-11-21T13:45:43.479Z,5.10
2022-11-21T13:48:39.239Z,4.40
2022-11-21T13:51:37.546Z,5.20
2022-11-21T13:54:33.603Z,4.97
2022-11-21T13:57:15.227Z,5.20
2022-11-21T14:00:01.512Z,5.13
2022-11-21T14:02:48.672Z,5.17
2022-11-21T14:05:57.846Z,5.83
2022-11-21T14:08:29.006Z,5.07
2022-11-21T14:10:58.826Z,6.60
2022-11-21T14:13:32.265Z,4.33
2022-11-21T14:16:25.092Z,5.97
2022-11-21T14:18:55.271Z,5.80
2022-11-21T14:21:27.991Z,4.57
2022-11-21T14:23:59.780Z,6.00
2022-11-21T14:26:32.777Z,5.50
2022-11-21T14:29:22.756Z,5.13
2022-11-21T14:31:52.267Z,5.07
2022-11-21T14:34:29.446Z,4.83
2022-11-21T14:37:01.512Z,4.97
2022-11-21T14:39:39.846Z,5.17
2022-11-21T14:42:15.813Z,5.87
2022-11-21T14:44:46.272Z,5.43
2022-11-21T14:47:23.424Z,4.87
2022-11-21T14:50:02.280Z,4.90
2022-11-21T14:52:35.937Z,5.53
2022-11-21T14:55:29.155Z,5.53
2022-11-21T14:57:56.832Z,5.30
2022-11-21T15:00:59.235Z,5.20
2022-11-21T15:03:21.963Z,5.33
2022-11-21T15:06:05.910Z,5.53
2022-11-21T15:11:35.946Z,5.93
2022-11-21T15:14:16.012Z,5.03
2022-11-21T15:16:49.470Z,5.40
2022-11-21T15:19:27.505Z,5.00
2022-11-21T15:21:58.780Z,5.50
2022-11-21T15:24:37.380Z,6.53
2022-11-21T15:27:29.235Z,6.17
2022-11-21T15:30:29.116Z,6.83
2022-11-21T15:33:08.690Z,4.40
2022-11-21T15:35:44.388Z,5.60
2022-11-21T15:38:23.315Z,6.27
2022-11-21T15:41:04.598Z,5.03
2022-11-21T15:43:42.532Z,5.23
2022-11-21T15:46:17.630Z,5.00
2022-11-21T15:48:49.165Z,5.73
2022-11-21T15:51:27.231Z,4.97
2022-11-21T15:54:11.993Z,5.10
2022-11-21T15:56:41.353Z,4.60
2022-11-21T15:59:10.804Z,5.23
2022-11-21T16:01:40.116Z,5.13
2022-11-21T16:04:12.219Z,5.30
2022-11-21T16:06:41.790Z,4.53
2022-11-21T16:09:10.919Z,4.23
2022-11-21T16:11:40.525Z,5.10
2022-11-21T16:14:10.184Z,5.53
2022-11-21T16:16:43.187Z,4.77
2022-11-21T16:19:15.384Z,4.33
2022-11-21T16:21:44.705Z,5.00
2022-11-21T16:24:13.842Z,4.80
2022-11-21T16:26:42.893Z,6.30
2022-11-21T16:29:12.601Z,5.33
2022-11-21T16:31:41.650Z,6.43
2022-11-21T16:34:10.694Z,5.43
2022-11-21T16:36:41.238Z,5.10
2022-11-21T16:39:16.618Z,5.13
2022-11-21T16:41:48.981Z,5.40
2022-11-21T16:44:18.629Z,6.03
2022-11-21T16:46:51.487Z,6.07
2022-11-21T16:49:20.621Z,5.37
2022-11-21T16:51:51.125Z,5.33
2022-11-21T16:54:20.220Z,5.27
2022-11-21T16:56:49.295Z,5.47
2022-11-21T16:59:18.377Z,6.07
2022-11-21T17:01:47.533Z,6.00
2022-11-21T17:04:17.671Z,5.77
2022-11-21T17:06:48.867Z,5.50
2022-11-21T17:09:19.336Z,5.37
2022-11-21T17:11:48.430Z,5.67
2022-11-21T17:14:17.455Z,4.37
2022-11-21T17:16:48.753Z,5.23
2022-11-21T17:19:17.928Z,4.90
2022-11-21T17:21:47.036Z,5.00
2022-11-21T17:24:16.767Z,3.80
2022-11-21T17:26:47.200Z,4.90
2022-11-21T17:29:16.308Z,3.27
2022-11-21T17:31:45.331Z,5.30
2022-11-21T17:34:15.410Z,5.10
2022-11-21T17:36:44.459Z,6.33
2022-11-21T17:39:13.703Z,5.03
2022-11-21T17:41:42.755Z,4.27
2022-11-21T17:44:16.200Z,4.87
2022-11-21T17:46:45.324Z,5.53
2022-11-21T17:49:14.504Z,6.20
2022-11-21T17:51:43.892Z,5.60
2022-11-21T17:54:13.014Z,5.87
2022-11-21T17:56:46.615Z,6.00
2022-11-21T17:59:19.707Z,6.53
2022-11-21T18:01:48.888Z,5.13
2022-11-21T18:04:18.391Z,5.87
2022-11-21T18:06:47.497Z,5.13
2022-11-21T18:09:17.509Z,5.27
2022-11-21T18:11:46.757Z,5.97
2022-11-21T18:14:16.588Z,5.43
2022-11-21T18:16:52.719Z,6.90
2022-11-21T18:19:24.100Z,7.23
2022-11-21T18:21:53.267Z,5.67
2022-11-21T18:24:22.436Z,8.00
2022-11-21T18:26:51.795Z,7.63
2022-11-21T18:29:38.239Z,7.17
2022-11-21T18:32:08.842Z,8.17
2022-11-21T18:34:37.892Z,7.30
2022-11-21T18:37:07.045Z,8.73
2022-11-21T18:39:36.156Z,8.13
2022-11-21T18:42:05.232Z,7.83
2022-11-21T18:44:34.283Z,8.33
2022-11-21T18:47:19.403Z,7.67
2022-11-21T18:49:50.758Z,8.57
2022-11-21T18:52:19.825Z,8.33
2022-11-21T18:54:48.889Z,8.23
2022-11-21T18:57:18.084Z,7.83
2022-11-21T18:59:47.231Z,8.37
2022-11-21T19:02:16.468Z,8.97
2022-11-21T19:04:45.518Z,10.40
2022-11-21T19:07:16.043Z,10.17
2022-11-21T19:09:46.448Z,10.00
2022-11-21T19:12:16.390Z,6.63
2022-11-21T19:14:45.507Z,10.17
2022-11-21T19:17:14.962Z,9.30
2022-11-21T19:19:44.371Z,10.27
2022-11-21T19:22:15.055Z,9.80
2022-11-21T19:24:44.161Z,9.33
2022-11-21T19:27:15.576Z,9.87
2022-11-21T19:29:45.012Z,9.03
2022-11-21T19:32:14.620Z,9.20
2022-11-21T19:34:44.017Z,9.23
2022-11-21T19:37:13.109Z,9.20
2022-11-21T19:39:46.789Z,9.23
2022-11-21T19:42:15.827Z,10.00
2022-11-21T19:44:45.071Z,8.70
2022-11-21T19:47:14.484Z,8.13
2022-11-21T19:49:44.171Z,8.27
2022-11-21T19:52:13.633Z,10.23
2022-11-21T19:54:47.399Z,8.07
2022-11-21T19:57:18.090Z,9.13
2022-11-21T19:59:47.562Z,8.57
2022-11-21T20:02:19.050Z,8.47
2022-11-21T20:04:48.538Z,7.90
2022-11-21T20:07:18.076Z,8.27
2022-11-21T20:09:48.270Z,8.13
2022-11-21T20:12:21.576Z,7.73
2022-11-21T20:14:50.663Z,8.90
2022-11-21T20:17:19.956Z,7.50
2022-11-21T20:19:51.412Z,6.90
2022-11-21T20:22:20.496Z,7.87
2022-11-21T20:24:51.913Z,7.50
2022-11-21T20:27:22.878Z,8.17
2022-11-21T20:29:52.040Z,7.90
2022-11-21T20:32:21.115Z,9.27
2022-11-21T20:34:51.400Z,8.00
2022-11-21T20:37:20.687Z,7.00
2022-11-21T20:39:49.746Z,7.47
2022-11-21T20:42:18.871Z,7.60
2022-11-21T20:47:38.730Z,7.93
2022-11-21T20:50:08.700Z,6.50
2022-11-21T20:55:27.306Z,8.97
2022-11-21T20:57:56.797Z,9.17
2022-11-21T21:00:28.546Z,7.63
2022-11-21T21:02:57.574Z,7.90
2022-11-21T21:05:26.881Z,8.13
2022-11-21T21:07:56.187Z,7.50
2022-11-21T21:10:26.598Z,7.70
2022-11-21T21:12:55.973Z,8.33
2022-11-21T21:15:26.867Z,9.00
2022-11-21T21:17:56.117Z,7.43
2022-11-21T21:20:25.604Z,7.50
2022-11-21T21:22:56.376Z,7.20
2022-11-21T21:25:25.768Z,8.93
2022-11-21T21:27:56.702Z,8.90
2022-11-21T21:30:27.604Z,7.73
2022-11-21T21:32:56.665Z,8.17
2022-11-21T21:35:25.951Z,8.37
2022-11-21T21:37:55.038Z,7.93
2022-11-21T21:40:24.093Z,7.63
2022-11-21T21:42:54.484Z,8.03
2022-11-21T21:45:23.842Z,8.20
2022-11-21T21:47:54.187Z,7.70
2022-11-21T21:50:23.593Z,7.20
2022-11-21T21:52:52.635Z,7.03
2022-11-21T21:55:21.778Z,8.30
2022-11-21T21:57:52.558Z,12.93
2022-11-21T22:00:21.934Z,7.87
2022-11-21T22:02:51.056Z,6.00
2022-11-21T22:05:21.544Z,10.97
2022-11-21T22:07:50.698Z,7.90
2022-11-21T22:10:19.792Z,8.37
2022-11-21T22:12:49.506Z,8.60
2022-11-21T22:15:18.592Z,9.93
2022-11-21T22:17:48.024Z,9.57
2022-11-21T22:20:17.649Z,8.83
2022-11-21T22:22:48.063Z,9.23
2022-11-21T22:25:17.353Z,10.10
2022-11-21T22:27:46.454Z,10.10
2022-11-21T22:30:15.749Z,8.33
2022-11-21T22:32:44.877Z,7.50
2022-11-21T22:35:14.152Z,9.80
2022-11-21T22:37:43.209Z,6.50
2022-11-21T22:40:15.064Z,9.00
2022-11-21T22:42:44.124Z,10.10
2022-11-21T22:45:13.429Z,7.47
2022-11-21T22:47:47.790Z,8.37
2022-11-21T22:50:17.634Z,7.27
2022-11-21T22:52:46.722Z,10.97
2022-11-21T22:55:17.444Z,7.50
2022-11-21T22:57:46.696Z,9.63
2022-11-21T23:00:17.138Z,7.83
2022-11-21T23:02:46.188Z,7.70
2022-11-21T23:05:15.282Z,8.03
2022-11-21T23:07:44.927Z,8.20
2022-11-21T23:10:14.114Z,8.40
2022-11-21T23:12:45.846Z,8.50
2022-11-21T23:15:15.070Z,9.00
2022-11-21T23:17:47.179Z,6.93
2022-11-21T23:20:20.153Z,8.57
2022-11-21T23:22:49.259Z,8.30
2022-11-21T23:25:18.449Z,7.67
2022-11-21T23:27:48.859Z,6.40
2022-11-21T23:30:18.165Z,9.33
2022-11-21T23:32:47.569Z,8.77
2022-11-21T23:35:16.735Z,7.57
2022-11-21T23:37:45.848Z,7.97
2022-11-21T23:40:15.315Z,7.30
2022-11-21T23:42:46.060Z,9.70
2022-11-21T23:45:16.866Z,7.80
2022-11-21T23:47:46.041Z,9.70
2022-11-21T23:50:15.622Z,7.73
2022-11-21T23:52:44.868Z,8.83
2022-11-21T23:55:13.950Z,9.73
2022-11-21T23:57:43.496Z,7.07
